Time;durP1;ratioP1;P1;durP2;ratioP2;P2;SDS_P1;SDS_P2;PMS_P1;PMS_P2;Temp;Humidity;BMP_temperature;BMP_pressure;BME280_temperature;BME280_humidity;BME280_pressure;Samples;Min_cycle;Max_cycle;Signal;HPM_P1;HPM_P2
2024/01/08 00:00:43;;;;;;;11.33;6.80;;;-7.40;99.90;;;;;;5210167;28;20176;-50
2024/01/08 00:03:14;;;;;;;13.70;7.10;;;-7.50;99.90;;;;;;5228486;28;20201;-50
2024/01/08 00:05:45;;;;;;;18.90;9.80;;;-7.50;99.90;;;;;;5227832;28;20643;-49
2024/01/08 00:08:15;;;;;;;20.87;9.93;;;-7.50;99.90;;;;;;5213393;28;20203;-49
2024/01/08 00:10:46;;;;;;;13.90;6.63;;;-7.50;99.90;;;;;;5225749;28;20441;-50
2024/01/08 00:13:17;;;;;;;14.03;7.10;;;-7.60;99.90;;;;;;5226605;28;20236;-50
2024/01/08 00:15:47;;;;;;;14.20;6.70;;;-7.60;99.90;;;;;;5229017;28;20190;-51
2024/01/08 00:18:19;;;;;;;11.70;6.33;;;-7.60;99.90;;;;;;5226858;28;20639;-49
2024/01/08 00:20:50;;;;;;;13.77;7.13;;;-7.70;99.90;;;;;;5209502;28;20171;-49
2024/01/08 00:23:20;;;;;;;14.53;6.97;;;-7.60;99.90;;;;;;5214066;28;20476;-50
2024/01/08 00:25:51;;;;;;;17.97;6.73;;;-7.70;99.90;;;;;;5225175;28;20654;-49
2024/01/08 00:28:22;;;;;;;11.83;6.43;;;-7.70;99.90;;;;;;5227364;28;20217;-50
2024/01/08 00:30:53;;;;;;;14.13;6.70;;;-7.70;99.90;;;;;;5209288;28;20276;-50
2024/01/08 00:33:23;;;;;;;12.87;7.50;;;-7.70;99.90;;;;;;5216995;28;20730;-50
2024/01/08 00:35:54;;;;;;;12.80;7.30;;;-7.80;99.90;;;;;;5211118;28;20541;-49
2024/01/08 00:38:24;;;;;;;15.13;6.93;;;-7.80;99.90;;;;;;5211030;28;20209;-50
2024/01/08 00:40:55;;;;;;;8.93;6.40;;;-7.80;99.90;;;;;;5222752;28;20179;-50
2024/01/08 00:43:26;;;;;;;11.13;6.73;;;-7.80;99.90;;;;;;5211076;28;20183;-50
2024/01/08 00:45:56;;;;;;;14.07;7.87;;;-7.90;99.90;;;;;;5209938;28;20655;-49
2024/01/08 00:48:27;;;;;;;11.93;6.30;;;-7.90;99.90;;;;;;5209885;28;20717;-50
2024/01/08 00:50:57;;;;;;;12.50;6.97;;;-7.90;99.90;;;;;;5209683;28;20194;-51
2024/01/08 00:53:28;;;;;;;13.87;6.83;;;-7.90;99.90;;;;;;5227347;28;20186;-50
2024/01/08 00:55:59;;;;;;;12.60;6.23;;;-7.80;99.90;;;;;;5222631;28;20182;-51
2024/01/08 00:58:30;;;;;;;10.97;6.70;;;-7.80;99.90;;;;;;5218849;28;20210;-50
2024/01/08 01:01:00;;;;;;;18.83;7.10;;;-7.80;99.90;;;;;;5214315;28;20197;-51
2024/01/08 01:03:31;;;;;;;10.40;6.63;;;-7.80;99.90;;;;;;5228621;28;20431;-48
2024/01/08 01:06:02;;;;;;;9.80;6.20;;;-7.80;99.90;;;;;;5225750;28;20202;-49
2024/01/08 01:08:33;;;;;;;16.30;7.13;;;-7.80;99.90;;;;;;5212163;28;20206;-50
2024/01/08 01:11:03;;;;;;;14.73;7.17;;;-7.90;99.90;;;;;;5227581;28;20445;-50
2024/01/08 01:13:34;;;;;;;20.53;7.30;;;-7.90;99.90;;;;;;5226729;28;20187;-49
2024/01/08 01:16:05;;;;;;;7.57;6.20;;;-7.90;99.90;;;;;;5228227;28;20218;-50
2024/01/08 01:18:36;;;;;;;11.27;6.00;;;-7.90;99.90;;;;;;5206936;28;20273;-51
2024/01/08 01:21:06;;;;;;;14.50;7.43;;;-7.90;99.90;;;;;;5226082;28;20440;-50
2024/01/08 01:23:37;;;;;;;9.53;6.37;;;-7.90;99.90;;;;;;5209018;28;21358;-50
2024/01/08 01:26:07;;;;;;;14.93;7.00;;;-7.90;99.90;;;;;;5225906;28;20183;-52
2024/01/08 01:28:38;;;;;;;10.13;5.90;;;-7.80;99.90;;;;;;5228565;28;20222;-51
2024/01/08 01:31:12;;;;;;;11.20;6.40;;;-7.90;99.90;;;;;;5208039;28;20194;-50
2024/01/08 01:33:43;;;;;;;11.07;6.27;;;-7.80;99.90;;;;;;5227761;28;20422;-50
2024/01/08 01:36:14;;;;;;;18.43;7.60;;;-7.90;99.90;;;;;;5209479;28;20449;-51
2024/01/08 01:38:45;;;;;;;11.80;6.37;;;-7.90;99.90;;;;;;5230731;28;20305;-49
2024/01/08 01:41:15;;;;;;;12.53;7.20;;;-7.80;99.90;;;;;;5226778;28;20195;-49
2024/01/08 01:43:46;;;;;;;11.23;6.17;;;-7.90;99.90;;;;;;5227803;28;20585;-49
2024/01/08 01:46:23;;;;;;;15.97;7.63;;;-7.90;99.90;;;;;;5225322;28;20185;-49
2024/01/08 01:48:54;;;;;;;10.80;6.70;;;-7.90;99.90;;;;;;5221846;28;20642;-49
2024/01/08 01:51:25;;;;;;;10.33;6.40;;;-7.80;99.90;;;;;;5209860;28;20442;-50
2024/01/08 01:53:57;;;;;;;11.67;6.40;;;-7.80;99.90;;;;;;5208163;28;20428;-50
2024/01/08 01:56:28;;;;;;;10.97;6.07;;;-7.80;99.90;;;;;;5225590;28;20163;-50
2024/01/08 01:59:01;;;;;;;9.10;6.27;;;-7.80;99.90;;;;;;5209258;28;20514;-50
2024/01/08 02:01:33;;;;;;;13.37;7.03;;;-7.80;99.90;;;;;;5215469;28;20264;-49
2024/01/08 02:04:04;;;;;;;11.13;6.40;;;-7.80;99.90;;;;;;5224599;28;20429;-50
2024/01/08 02:06:37;;;;;;;12.03;6.43;;;-7.80;99.90;;;;;;5209955;28;20460;-49
2024/01/08 02:09:07;;;;;;;19.63;6.77;;;-7.90;99.90;;;;;;5229109;28;20444;-49
2024/01/08 02:11:38;;;;;;;11.13;6.27;;;-7.80;99.90;;;;;;5224036;28;20928;-52
2024/01/08 02:14:09;;;;;;;7.23;5.90;;;-7.80;99.90;;;;;;5210401;28;20215;-50
2024/01/08 02:16:41;;;;;;;10.63;6.67;;;-7.80;99.90;;;;;;5212735;28;20721;-51
2024/01/08 02:19:12;;;;;;;13.93;6.30;;;-7.80;99.90;;;;;;5224107;28;20446;-49
2024/01/08 02:21:43;;;;;;;10.93;7.00;;;-7.90;99.90;;;;;;5225624;28;20414;-49
2024/01/08 02:24:14;;;;;;;12.63;6.23;;;-7.90;99.90;;;;;;5225611;28;20230;-50
2024/01/08 02:29:28;;;;;;;10.23;5.70;;;-7.80;99.90;;;;;;1624991;26;20572;-49
2024/01/08 02:31:59;;;;;;;14.20;6.67;;;-7.90;99.90;;;;;;5202671;28;20441;-48
2024/01/08 02:34:29;;;;;;;16.53;6.70;;;-7.90;99.90;;;;;;5220903;28;20520;-49
2024/01/08 02:37:00;;;;;;;11.40;6.57;;;-7.80;99.90;;;;;;5222518;28;20287;-48
2024/01/08 02:39:30;;;;;;;9.23;5.60;;;-7.80;99.90;;;;;;5207077;28;20264;-49
2024/01/08 02:42:01;;;;;;;11.20;6.83;;;-7.80;99.90;;;;;;5221280;28;20566;-49
2024/01/08 02:44:32;;;;;;;11.70;6.73;;;-7.90;99.90;;;;;;5206061;28;20196;-48
2024/01/08 02:47:03;;;;;;;11.57;6.93;;;-7.80;99.90;;;;;;5225242;28;20198;-49
2024/01/08 02:49:33;;;;;;;7.43;5.90;;;-7.80;99.90;;;;;;5212436;28;20223;-49
2024/01/08 02:52:04;;;;;;;14.17;7.53;;;-7.90;99.90;;;;;;5206330;28;20185;-47
2024/01/08 02:54:34;;;;;;;14.60;6.90;;;-7.80;99.90;;;;;;5208238;28;20174;-47
2024/01/08 02:57:05;;;;;;;11.20;6.30;;;-7.80;99.90;;;;;;5231583;28;20707;-53
2024/01/08 02:59:36;;;;;;;10.83;6.23;;;-7.80;99.90;;;;;;5208693;28;20289;-49
2024/01/08 03:02:06;;;;;;;16.10;6.27;;;-7.70;99.90;;;;;;5221698;28;20434;-50
2024/01/08 03:04:37;;;;;;;11.83;6.80;;;-7.80;99.90;;;;;;5205690;28;20196;-48
2024/01/08 03:07:08;;;;;;;9.13;6.47;;;-7.80;99.90;;;;;;5222784;28;20263;-50
2024/01/08 03:09:39;;;;;;;7.00;4.97;;;-7.70;99.90;;;;;;5221730;28;20630;-49
2024/01/08 03:12:11;;;;;;;12.33;6.20;;;-7.70;99.90;;;;;;5224353;28;20330;-47
2024/01/08 03:14:45;;;;;;;11.20;6.00;;;-7.70;99.90;;;;;;5174897;28;20444;-48
2024/01/08 03:17:16;;;;;;;12.57;6.17;;;-7.70;99.90;;;;;;5200779;28;20475;-51
2024/01/08 03:19:47;;;;;;;10.73;6.77;;;-7.70;99.90;;;;;;5215421;28;20831;-47
2024/01/08 03:22:18;;;;;;;9.73;4.90;;;-7.70;99.90;;;;;;5214628;28;20922;-47
2024/01/08 03:24:48;;;;;;;12.10;5.90;;;-7.70;99.90;;;;;;5221086;28;20440;-48
2024/01/08 03:27:19;;;;;;;8.43;5.33;;;-7.60;99.90;;;;;;5220113;28;20206;-49
2024/01/08 03:29:49;;;;;;;7.13;5.40;;;-7.70;99.90;;;;;;5222916;28;20188;-49
2024/01/08 03:32:20;;;;;;;11.10;5.50;;;-7.70;99.90;;;;;;5209880;28;20671;-47
2024/01/08 03:34:51;;;;;;;10.87;6.27;;;-7.70;99.90;;;;;;5206019;28;20197;-47
2024/01/08 03:37:21;;;;;;;9.80;5.63;;;-7.70;99.90;;;;;;5210126;28;20217;-47
2024/01/08 03:39:52;;;;;;;12.47;6.10;;;-7.70;99.90;;;;;;5208260;28;20185;-47
2024/01/08 03:42:23;;;;;;;10.97;6.20;;;-7.70;99.90;;;;;;5218056;28;20194;-49
2024/01/08 03:44:53;;;;;;;11.37;5.60;;;-7.70;99.90;;;;;;5213028;28;20190;-48
2024/01/08 03:47:24;;;;;;;12.13;6.27;;;-7.80;99.90;;;;;;5227097;28;20267;-48
2024/01/08 03:49:55;;;;;;;9.00;6.40;;;-7.70;99.90;;;;;;5230389;28;20274;-48
2024/01/08 03:52:25;;;;;;;8.00;5.20;;;-7.80;99.90;;;;;;5206404;28;20178;-48
2024/01/08 03:54:56;;;;;;;13.70;7.13;;;-7.80;99.90;;;;;;5213593;28;20190;-49
2024/01/08 03:57:27;;;;;;;8.90;6.30;;;-7.80;99.90;;;;;;5205915;28;20217;-49
2024/01/08 03:59:58;;;;;;;12.67;6.90;;;-7.80;99.90;;;;;;5223729;28;20184;-49
2024/01/08 04:02:28;;;;;;;10.53;6.23;;;-7.80;99.90;;;;;;5214325;28;20463;-48
2024/01/08 04:04:59;;;;;;;8.27;5.50;;;-7.80;99.90;;;;;;5210719;28;20213;-48
2024/01/08 04:07:29;;;;;;;14.70;6.63;;;-7.80;99.90;;;;;;5209466;28;20199;-50
2024/01/08 04:10:00;;;;;;;10.50;6.70;;;-7.80;99.90;;;;;;5213696;28;20187;-48
2024/01/08 04:12:31;;;;;;;10.90;5.40;;;-7.80;99.90;;;;;;5222499;28;20438;-49
2024/01/08 04:15:02;;;;;;;7.33;5.77;;;-7.80;99.90;;;;;;5225784;28;20187;-49
2024/01/08 04:17:32;;;;;;;12.20;5.73;;;-7.80;99.90;;;;;;5209133;28;20272;-49
2024/01/08 04:20:04;;;;;;;13.90;6.20;;;-7.90;99.90;;;;;;5224849;28;20182;-49
2024/01/08 04:22:34;;;;;;;7.63;5.50;;;-7.80;99.90;;;;;;5214759;28;20185;-48
2024/01/08 04:25:05;;;;;;;12.77;5.07;;;-7.80;99.90;;;;;;5224594;28;20932;-50
2024/01/08 04:27:36;;;;;;;10.87;6.70;;;-7.90;99.90;;;;;;5223942;28;20574;-50
2024/01/08 04:30:07;;;;;;;8.10;5.27;;;-7.80;99.90;;;;;;5210465;28;20218;-49
2024/01/08 04:32:38;;;;;;;11.17;6.93;;;-7.80;99.90;;;;;;5223323;28;20968;-49
2024/01/08 04:35:09;;;;;;;8.53;5.60;;;-7.80;99.90;;;;;;5227321;28;20650;-48
2024/01/08 04:37:40;;;;;;;11.63;6.43;;;-7.90;99.90;;;;;;5207261;28;20221;-50
2024/01/08 04:40:11;;;;;;;11.40;6.60;;;-7.90;99.90;;;;;;5226095;28;20472;-48
2024/01/08 04:42:42;;;;;;;13.27;6.70;;;-7.90;99.90;;;;;;5208146;28;21258;-48
2024/01/08 04:45:13;;;;;;;9.90;6.27;;;-7.90;99.90;;;;;;5207186;28;20523;-49
2024/01/08 04:47:43;;;;;;;8.63;5.70;;;-7.90;99.90;;;;;;5209915;28;20673;-49
2024/01/08 04:50:14;;;;;;;12.97;7.37;;;-7.90;99.90;;;;;;5224609;28;20259;-50
2024/01/08 04:52:44;;;;;;;8.87;6.53;;;-7.90;99.90;;;;;;5211106;28;20205;-49
2024/01/08 04:55:15;;;;;;;7.80;5.60;;;-7.90;99.90;;;;;;5206897;28;20550;-49
2024/01/08 04:57:47;;;;;;;12.53;6.43;;;-7.90;99.90;;;;;;5224978;28;20218;-48
2024/01/08 05:00:18;;;;;;;8.63;5.47;;;-7.90;99.90;;;;;;5223967;28;20510;-47
2024/01/08 05:02:49;;;;;;;12.97;6.23;;;-7.90;99.90;;;;;;5224141;28;20436;-48
2024/01/08 05:05:19;;;;;;;10.63;6.50;;;-7.90;99.90;;;;;;5216965;28;20194;-49
2024/01/08 05:07:50;;;;;;;22.63;10.20;;;-7.90;99.90;;;;;;5212553;28;20233;-49
2024/01/08 05:10:20;;;;;;;12.77;6.93;;;-7.90;99.90;;;;;;5209087;28;20183;-48
2024/01/08 05:12:51;;;;;;;14.10;6.67;;;-7.90;99.90;;;;;;5214930;28;20380;-48
2024/01/08 05:15:21;;;;;;;10.80;6.10;;;-8.00;99.90;;;;;;5212445;28;20187;-47
2024/01/08 05:17:52;;;;;;;13.13;6.73;;;-8.00;99.90;;;;;;5224674;28;20213;-49
2024/01/08 05:20:23;;;;;;;12.50;7.00;;;-7.90;99.90;;;;;;5224423;28;20208;-48
2024/01/08 05:22:53;;;;;;;15.07;7.20;;;-7.90;99.90;;;;;;5191206;28;20190;-48
2024/01/08 05:25:24;;;;;;;10.33;6.67;;;-8.00;99.90;;;;;;5224836;28;20190;-48
2024/01/08 05:27:54;;;;;;;15.23;7.70;;;-7.90;99.90;;;;;;5213522;28;20217;-50
2024/01/08 05:30:25;;;;;;;11.37;6.23;;;-8.00;99.90;;;;;;5224998;28;20656;-48
2024/01/08 05:32:56;;;;;;;16.73;6.20;;;-7.90;99.90;;;;;;5224257;28;20187;-48
2024/01/08 05:35:27;;;;;;;16.27;6.70;;;-8.00;99.90;;;;;;5224448;28;20282;-48
2024/01/08 05:37:57;;;;;;;10.87;6.33;;;-8.00;99.90;;;;;;5223007;28;20217;-49
2024/01/08 05:40:28;;;;;;;9.73;6.10;;;-7.90;99.90;;;;;;5210328;28;20801;-48
2024/01/08 05:42:58;;;;;;;17.90;6.87;;;-7.90;99.90;;;;;;5215481;28;20289;-49
2024/01/08 05:45:30;;;;;;;22.23;7.80;;;-8.00;99.90;;;;;;5208338;28;20654;-50
2024/01/08 05:48:00;;;;;;;12.50;7.07;;;-7.90;99.90;;;;;;5213099;28;20256;-49
2024/01/08 05:50:31;;;;;;;12.17;6.60;;;-8.00;99.90;;;;;;5225860;28;20453;-49
2024/01/08 05:53:02;;;;;;;8.50;5.73;;;-8.00;99.90;;;;;;5222890;28;20251;-51
2024/01/08 05:55:32;;;;;;;12.90;7.23;;;-8.00;99.90;;;;;;5207967;28;20191;-49
2024/01/08 05:58:03;;;;;;;10.10;6.83;;;-8.00;99.90;;;;;;5208490;28;20348;-49
2024/01/08 06:00:33;;;;;;;13.03;7.13;;;-8.00;99.90;;;;;;5222171;28;20187;-49
2024/01/08 06:03:04;;;;;;;11.40;7.00;;;-8.00;99.90;;;;;;5224091;28;20193;-49
2024/01/08 06:05:35;;;;;;;21.60;6.40;;;-8.00;99.90;;;;;;5210421;28;21020;-49
2024/01/08 06:08:06;;;;;;;15.10;8.17;;;-8.00;99.90;;;;;;5225996;28;20265;-49
2024/01/08 06:10:38;;;;;;;10.23;7.20;;;-8.00;99.90;;;;;;5222952;28;20186;-49
2024/01/08 06:13:10;;;;;;;16.67;8.10;;;-8.00;99.90;;;;;;5225905;28;20471;-48
2024/01/08 06:15:40;;;;;;;15.80;7.87;;;-8.00;99.90;;;;;;5185202;28;20443;-49
2024/01/08 06:18:11;;;;;;;12.53;6.70;;;-8.00;99.90;;;;;;5207702;28;20502;-50
2024/01/08 06:20:42;;;;;;;15.17;7.30;;;-8.00;99.90;;;;;;5222188;28;20236;-47
2024/01/08 06:23:13;;;;;;;13.10;7.20;;;-8.00;99.90;;;;;;5205931;28;20191;-49
2024/01/08 06:25:43;;;;;;;12.10;7.03;;;-8.10;99.90;;;;;;5194374;28;20198;-48
2024/01/08 06:28:14;;;;;;;12.13;7.77;;;-8.10;99.90;;;;;;5200458;28;20224;-48
2024/01/08 06:30:44;;;;;;;15.20;7.10;;;-8.10;99.90;;;;;;5223184;28;20209;-49
2024/01/08 06:33:15;;;;;;;13.77;8.60;;;-8.10;99.90;;;;;;5225236;28;20278;-47
2024/01/08 06:35:45;;;;;;;16.60;8.33;;;-8.10;99.90;;;;;;5222614;28;20186;-48
2024/01/08 06:38:17;;;;;;;17.53;8.90;;;-8.10;99.90;;;;;;5220899;28;20573;-49
2024/01/08 06:40:47;;;;;;;15.57;7.83;;;-8.00;99.90;;;;;;5209163;28;20190;-49
2024/01/08 06:43:18;;;;;;;22.37;8.77;;;-8.00;99.90;;;;;;5204366;28;20440;-48
2024/01/08 06:45:49;;;;;;;11.60;7.57;;;-8.00;99.90;;;;;;5208272;28;20524;-48
2024/01/08 06:48:20;;;;;;;21.20;7.53;;;-8.00;99.90;;;;;;5205434;28;20217;-50
2024/01/08 06:50:51;;;;;;;11.23;7.03;;;-8.10;99.90;;;;;;5214826;28;20200;-49
2024/01/08 06:53:22;;;;;;;15.10;8.47;;;-8.10;99.90;;;;;;5198998;28;20508;-51
2024/01/08 06:55:52;;;;;;;15.40;7.87;;;-8.10;99.90;;;;;;5210350;28;20467;-49
2024/01/08 06:58:23;;;;;;;16.37;8.37;;;-8.00;99.90;;;;;;5219492;28;20233;-48
2024/01/08 07:00:53;;;;;;;14.93;7.93;;;-8.00;99.90;;;;;;5217860;28;20277;-49
2024/01/08 07:03:24;;;;;;;14.17;7.40;;;-8.00;99.90;;;;;;5216880;28;20205;-50
2024/01/08 07:05:55;;;;;;;12.07;8.47;;;-8.00;99.90;;;;;;5218753;28;20542;-50
2024/01/08 07:08:25;;;;;;;11.90;7.03;;;-8.00;99.90;;;;;;5220431;28;20210;-48
2024/01/08 07:10:56;;;;;;;17.97;8.10;;;-8.00;99.90;;;;;;5202307;28;20185;-50
2024/01/08 07:13:27;;;;;;;17.67;7.63;;;-8.00;99.90;;;;;;5215026;28;20196;-48
2024/01/08 07:15:57;;;;;;;15.20;8.00;;;-8.10;99.90;;;;;;5206110;28;20195;-51
2024/01/08 07:18:29;;;;;;;16.10;7.90;;;-8.00;99.90;;;;;;5200736;28;20578;-50
2024/01/08 07:20:59;;;;;;;14.23;7.90;;;-8.00;99.90;;;;;;5223830;28;20268;-50
2024/01/08 07:23:30;;;;;;;15.17;7.40;;;-8.00;99.90;;;;;;5208400;28;20530;-51
2024/01/08 07:26:01;;;;;;;14.97;8.27;;;-8.00;99.90;;;;;;5223506;28;20587;-50
2024/01/08 07:28:31;;;;;;;13.77;7.40;;;-8.00;99.90;;;;;;5219469;28;20207;-50
2024/01/08 07:31:05;;;;;;;12.90;7.37;;;-8.00;99.90;;;;;;5204366;28;20825;-50
2024/01/08 07:33:39;;;;;;;16.63;8.43;;;-8.00;99.90;;;;;;5222372;28;20178;-51
2024/01/08 07:36:10;;;;;;;16.40;7.70;;;-8.00;99.90;;;;;;5221171;28;20932;-49
2024/01/08 07:38:41;;;;;;;16.23;8.20;;;-8.00;99.90;;;;;;5220005;28;20476;-48
2024/01/08 07:41:12;;;;;;;16.10;8.60;;;-8.00;99.90;;;;;;5189932;28;20183;-49
2024/01/08 07:43:43;;;;;;;17.13;9.10;;;-8.00;99.90;;;;;;5226637;28;20186;-49
2024/01/08 07:46:14;;;;;;;13.10;7.60;;;-8.00;99.90;;;;;;5211937;28;20443;-50
2024/01/08 07:48:45;;;;;;;14.50;8.60;;;-7.90;99.90;;;;;;5199531;28;20236;-49
2024/01/08 07:51:22;;;;;;;15.93;9.17;;;-7.90;99.90;;;;;;5192319;28;20524;-49
2024/01/08 07:53:52;;;;;;;17.77;8.03;;;-7.90;99.90;;;;;;5208257;28;20558;-50
2024/01/08 07:56:27;;;;;;;17.40;8.47;;;-7.90;99.90;;;;;;5207941;28;20455;-48
2024/01/08 07:58:57;;;;;;;13.57;7.67;;;-7.90;99.90;;;;;;5209191;28;20557;-49
2024/01/08 08:01:28;;;;;;;18.63;9.00;;;-7.90;99.90;;;;;;5209962;28;20448;-47
2024/01/08 08:04:00;;;;;;;15.70;9.27;;;-7.90;99.90;;;;;;5208310;28;20289;-50
2024/01/08 08:06:30;;;;;;;17.70;9.40;;;-7.80;99.90;;;;;;5208717;28;20282;-50
2024/01/08 08:09:01;;;;;;;15.10;8.93;;;-7.90;99.90;;;;;;5223404;28;20548;-50
2024/01/08 08:11:32;;;;;;;15.93;7.43;;;-7.80;99.90;;;;;;5202199;28;20602;-50
2024/01/08 08:14:03;;;;;;;16.23;8.00;;;-7.80;99.90;;;;;;5205566;28;20257;-48
2024/01/08 08:16:33;;;;;;;10.77;7.43;;;-7.80;99.90;;;;;;5192311;28;20442;-49
2024/01/08 08:19:04;;;;;;;15.37;7.97;;;-7.70;99.90;;;;;;5194026;28;20274;-48
2024/01/08 08:21:38;;;;;;;14.50;8.07;;;-7.70;99.90;;;;;;5205552;28;20267;-49
2024/01/08 08:24:08;;;;;;;19.50;7.70;;;-7.50;99.90;;;;;;5206633;28;20183;-48
2024/01/08 08:26:39;;;;;;;11.90;6.83;;;-7.40;99.90;;;;;;5226124;28;20445;-49
2024/01/08 08:29:09;;;;;;;19.87;8.30;;;-7.50;99.90;;;;;;5219747;28;20218;-49
2024/01/08 08:31:40;;;;;;;19.63;9.37;;;-7.50;99.90;;;;;;5209399;28;20767;-49
2024/01/08 08:34:11;;;;;;;13.60;7.70;;;-7.60;99.90;;;;;;5223115;28;20189;-47
2024/01/08 08:36:41;;;;;;;15.73;8.50;;;-7.60;99.90;;;;;;5222586;28;20640;-48
2024/01/08 08:39:15;;;;;;;22.37;9.30;;;-7.60;99.90;;;;;;5206262;28;20194;-49
2024/01/08 08:41:45;;;;;;;16.20;7.53;;;-7.60;99.90;;;;;;5223554;28;20187;-50
2024/01/08 08:44:17;;;;;;;14.67;7.90;;;-7.60;99.90;;;;;;5222962;28;20446;-48
2024/01/08 08:46:47;;;;;;;12.30;7.47;;;-7.50;99.90;;;;;;5222152;28;20182;-50
2024/01/08 08:49:18;;;;;;;14.77;7.80;;;-7.50;99.90;;;;;;5223243;28;20426;-49
2024/01/08 08:51:49;;;;;;;19.07;7.47;;;-7.50;99.90;;;;;;5203092;28;20651;-50
2024/01/08 08:54:19;;;;;;;16.97;7.80;;;-7.40;99.90;;;;;;5199777;28;20251;-50
2024/01/08 08:56:50;;;;;;;12.03;7.03;;;-7.40;99.90;;;;;;5219341;28;20217;-49
2024/01/08 08:59:21;;;;;;;12.87;6.87;;;-7.30;99.90;;;;;;5205606;28;20681;-50
2024/01/08 09:01:51;;;;;;;12.70;7.70;;;-7.30;99.90;;;;;;5220366;28;20175;-49
2024/01/08 09:04:23;;;;;;;9.40;6.90;;;-7.20;99.90;;;;;;5202425;28;20543;-48
2024/01/08 09:06:54;;;;;;;13.90;8.13;;;-7.20;99.90;;;;;;5220403;28;20188;-49
2024/01/08 09:09:24;;;;;;;14.97;7.50;;;-7.10;99.90;;;;;;5218966;28;20419;-51
2024/01/08 09:11:55;;;;;;;16.40;8.13;;;-7.10;99.90;;;;;;5208895;28;20802;-52
2024/01/08 09:14:26;;;;;;;7.77;6.43;;;-7.10;99.90;;;;;;5219929;28;20200;-50
2024/01/08 09:16:57;;;;;;;8.47;5.87;;;-7.10;99.90;;;;;;5200122;28;20309;-49
2024/01/08 09:19:28;;;;;;;14.17;6.70;;;-7.10;99.90;;;;;;5221538;28;20179;-51
2024/01/08 09:21:59;;;;;;;11.20;6.73;;;-7.00;99.90;;;;;;5217676;28;20484;-49
2024/01/08 09:24:29;;;;;;;10.37;7.00;;;-7.10;99.90;;;;;;5206886;28;20186;-49
2024/01/08 09:27:00;;;;;;;13.37;7.17;;;-7.00;99.90;;;;;;5218117;28;20566;-50
2024/01/08 09:29:31;;;;;;;11.73;6.20;;;-6.90;99.90;;;;;;5204787;28;20588;-48
2024/01/08 09:32:02;;;;;;;12.00;6.27;;;-6.90;99.90;;;;;;5201871;28;20544;-50
2024/01/08 09:34:32;;;;;;;13.43;6.03;;;-6.80;99.90;;;;;;5221900;28;20199;-49
2024/01/08 09:37:03;;;;;;;10.37;5.57;;;-6.80;99.90;;;;;;5221649;28;20210;-49
2024/01/08 09:39:34;;;;;;;8.80;5.93;;;-6.80;99.90;;;;;;5202351;28;20175;-47
2024/01/08 09:42:05;;;;;;;11.07;6.50;;;-6.70;99.90;;;;;;5206267;28;20569;-49
2024/01/08 09:44:38;;;;;;;11.23;5.90;;;-6.70;99.90;;;;;;5217076;28;20276;-49
2024/01/08 09:47:08;;;;;;;10.77;5.10;;;-6.70;99.90;;;;;;5217921;28;20571;-52
2024/01/08 09:49:40;;;;;;;15.00;6.60;;;-6.70;99.90;;;;;;5216774;28;20527;-52
2024/01/08 09:52:13;;;;;;;9.60;5.53;;;-6.60;99.90;;;;;;5196001;28;20195;-52
2024/01/08 09:54:44;;;;;;;9.10;5.80;;;-6.60;99.90;;;;;;5223266;28;20436;-50
2024/01/08 09:57:15;;;;;;;8.97;5.77;;;-6.60;99.90;;;;;;5204859;28;20465;-49
2024/01/08 09:59:45;;;;;;;9.07;5.03;;;-6.50;99.90;;;;;;5222790;28;20183;-50
2024/01/08 10:02:16;;;;;;;13.33;4.93;;;-6.50;99.90;;;;;;5220888;28;20229;-50
2024/01/08 10:04:47;;;;;;;7.80;4.67;;;-6.50;99.90;;;;;;5216327;28;20175;-51
2024/01/08 10:07:18;;;;;;;10.03;5.33;;;-6.40;99.90;;;;;;5204904;28;20763;-50
2024/01/08 10:09:48;;;;;;;8.80;5.20;;;-6.40;99.90;;;;;;5203210;28;20528;-52
2024/01/08 10:12:19;;;;;;;5.53;4.47;;;-6.30;99.90;;;;;;5215956;28;20213;-53
2024/01/08 10:14:50;;;;;;;8.73;5.50;;;-6.30;99.90;;;;;;5221896;28;20205;-50
2024/01/08 10:17:21;;;;;;;6.03;4.70;;;-6.20;99.90;;;;;;5216000;28;20484;-52
2024/01/08 10:20:06;;;;;;;6.87;4.63;;;-6.20;99.90;;;;;;5218548;28;20684;-51
2024/01/08 10:22:37;;;;;;;8.10;4.60;;;-6.20;99.90;;;;;;5221864;28;20429;-51
2024/01/08 10:25:08;;;;;;;12.13;5.20;;;-6.20;99.90;;;;;;5205426;28;20432;-50
2024/01/08 10:27:39;;;;;;;5.07;3.87;;;-6.20;99.90;;;;;;5204682;28;20453;-50
2024/01/08 10:30:11;;;;;;;7.70;4.90;;;-6.20;99.90;;;;;;5200165;28;20499;-52
2024/01/08 10:32:41;;;;;;;9.43;5.80;;;-6.10;99.90;;;;;;5201045;28;20194;-50
2024/01/08 10:35:13;;;;;;;10.40;5.37;;;-6.10;99.90;;;;;;5218954;28;20445;-51
2024/01/08 10:37:46;;;;;;;4.70;3.93;;;-6.00;99.90;;;;;;5202801;28;20654;-51
2024/01/08 10:40:17;;;;;;;5.50;4.40;;;-6.00;99.90;;;;;;5219719;28;20459;-50
2024/01/08 10:42:48;;;;;;;8.63;5.30;;;-6.00;99.90;;;;;;5218938;28;20510;-50
2024/01/08 10:45:19;;;;;;;12.37;4.20;;;-5.90;99.90;;;;;;5199505;28;20810;-52
2024/01/08 10:47:56;;;;;;;10.10;4.80;;;-5.90;99.90;;;;;;5201654;28;20871;-50
2024/01/08 10:50:27;;;;;;;5.07;4.00;;;-5.90;99.90;;;;;;5217726;28;20260;-50
2024/01/08 10:52:58;;;;;;;5.97;4.60;;;-5.80;99.90;;;;;;5203800;28;20472;-50
2024/01/08 10:55:31;;;;;;;7.30;4.40;;;-5.70;99.90;;;;;;5209220;28;20437;-50
2024/01/08 10:58:07;;;;;;;8.60;4.57;;;-5.70;99.90;;;;;;5209113;28;20466;-50
2024/01/08 11:00:39;;;;;;;5.40;4.33;;;-5.60;99.90;;;;;;5206008;28;20484;-49
2024/01/08 11:03:10;;;;;;;8.03;4.50;;;-5.50;99.90;;;;;;5227970;28;20441;-52
2024/01/08 11:05:47;;;;;;;4.07;3.73;;;-5.50;99.90;;;;;;5222629;28;20434;-50
2024/01/08 11:08:21;;;;;;;5.50;4.23;;;-5.50;99.90;;;;;;5209167;28;20468;-50
2024/01/08 11:10:52;;;;;;;7.20;4.87;;;-5.60;99.90;;;;;;5204431;28;20503;-50
2024/01/08 11:13:22;;;;;;;9.00;4.10;;;-5.60;99.70;;;;;;5222975;28;20445;-52
2024/01/08 11:15:54;;;;;;;8.03;4.37;;;-5.50;98.50;;;;;;5205012;28;20187;-52
2024/01/08 11:18:28;;;;;;;5.60;4.30;;;-5.50;97.90;;;;;;5225132;28;20678;-52
2024/01/08 11:21:00;;;;;;;13.47;5.57;;;-5.40;97.40;;;;;;5222437;28;21041;-51
2024/01/08 11:23:38;;;;;;;5.07;4.50;;;-5.40;96.50;;;;;;5223959;28;20936;-51
2024/01/08 11:26:21;;;;;;;4.37;3.90;;;-5.30;95.60;;;;;;5225486;28;20433;-51
2024/01/08 11:29:03;;;;;;;6.10;3.60;;;-5.40;94.80;;;;;;5206624;28;21023;-50
2024/01/08 11:31:56;;;;;;;5.50;3.17;;;-5.40;93.60;;;;;;5206830;28;20445;-51
2024/01/08 11:34:56;;;;;;;5.70;3.93;;;-5.40;92.80;;;;;;5208502;28;20455;-49
2024/01/08 11:37:36;;;;;;;4.10;3.70;;;-5.30;93.20;;;;;;5225544;28;20460;-50
2024/01/08 11:40:18;;;;;;;6.50;4.63;;;-5.20;92.60;;;;;;5224421;28;20437;-50
2024/01/08 11:42:50;;;;;;;5.90;4.27;;;-5.10;92.40;;;;;;5225846;28;20418;-49
2024/01/08 11:45:21;;;;;;;4.33;3.93;;;-5.10;92.60;;;;;;5226455;28;21172;-49
2024/01/08 11:47:52;;;;;;;12.00;4.20;;;-5.00;92.30;;;;;;5209611;28;20551;-49
2024/01/08 11:50:22;;;;;;;4.30;3.93;;;-5.10;92.00;;;;;;5209348;28;20528;-49
2024/01/08 11:53:00;;;;;;;10.43;4.97;;;-5.00;91.70;;;;;;5226702;28;20232;-47
2024/01/08 11:55:31;;;;;;;6.77;3.57;;;-5.00;90.80;;;;;;5226535;28;20183;-50
2024/01/08 11:58:05;;;;;;;5.33;4.10;;;-5.00;91.30;;;;;;5209570;28;20972;-52
2024/01/08 12:00:36;;;;;;;5.17;3.40;;;-4.90;91.30;;;;;;5225554;28;20498;-49
2024/01/08 12:03:09;;;;;;;8.10;4.20;;;-4.90;91.40;;;;;;5226090;28;20791;-50
2024/01/08 12:05:40;;;;;;;3.80;3.17;;;-4.90;91.00;;;;;;5225811;28;20437;-50
2024/01/08 12:08:16;;;;;;;7.20;3.40;;;-4.90;90.80;;;;;;5225586;28;20818;-49
2024/01/08 12:10:53;;;;;;;5.70;3.40;;;-4.90;89.50;;;;;;5208492;28;20447;-47
2024/01/08 12:13:25;;;;;;;3.80;2.83;;;-4.80;88.30;;;;;;5211037;28;20513;-49
2024/01/08 12:15:57;;;;;;;5.10;3.47;;;-4.80;87.20;;;;;;5206603;28;20563;-49
2024/01/08 12:18:29;;;;;;;5.83;3.40;;;-4.80;87.10;;;;;;5209058;28;20469;-49
2024/01/08 12:20:59;;;;;;;4.53;3.67;;;-4.80;86.60;;;;;;5222430;28;20933;-49
2024/01/08 12:23:30;;;;;;;3.40;3.10;;;-4.80;86.20;;;;;;5209566;28;20452;-49
2024/01/08 12:26:00;;;;;;;4.20;3.53;;;-4.80;85.20;;;;;;5208110;28;20240;-50
2024/01/08 12:28:33;;;;;;;4.83;3.43;;;-4.70;84.00;;;;;;5222930;28;20266;-49
2024/01/08 12:31:05;;;;;;;3.47;3.17;;;-4.70;81.20;;;;;;5206805;28;20638;-50
2024/01/08 12:33:36;;;;;;;3.47;3.03;;;-4.70;80.90;;;;;;5224890;28;20428;-49
2024/01/08 12:36:07;;;;;;;7.63;3.87;;;-4.70;80.80;;;;;;5208403;28;20449;-51
2024/01/08 12:38:38;;;;;;;5.43;3.70;;;-4.70;80.20;;;;;;5207450;28;20495;-50
2024/01/08 12:41:09;;;;;;;4.73;3.27;;;-4.70;81.10;;;;;;5206360;28;20495;-49
2024/01/08 12:43:43;;;;;;;6.80;3.33;;;-4.70;78.60;;;;;;5224213;28;20725;-48
2024/01/08 12:46:14;;;;;;;4.50;2.80;;;-4.70;75.50;;;;;;5206018;28;21624;-50
2024/01/08 12:48:45;;;;;;;4.20;3.70;;;-4.80;75.90;;;;;;5225037;28;20941;-51
2024/01/08 12:51:15;;;;;;;5.53;3.37;;;-4.70;75.00;;;;;;5223562;28;20179;-52
2024/01/08 12:53:46;;;;;;;4.87;3.20;;;-4.70;75.20;;;;;;5225023;28;20195;-49
2024/01/08 12:56:16;;;;;;;3.50;3.20;;;-4.70;75.10;;;;;;5223712;28;20211;-52
2024/01/08 12:58:50;;;;;;;3.80;3.03;;;-4.60;74.80;;;;;;5221582;28;20219;-51
2024/01/08 13:01:21;;;;;;;9.20;4.40;;;-4.50;73.30;;;;;;5205028;28;20624;-52
2024/01/08 13:03:51;;;;;;;8.70;4.30;;;-4.50;73.30;;;;;;5205968;28;20444;-51